createdAt,value
2019-01-21T00:00:38.578Z,76.70
2019-01-21T00:03:06.018Z,77.90
2019-01-21T00:05:32.654Z,78.30
2019-01-21T00:07:59.268Z,78.70
2019-01-21T00:10:26.043Z,77.30
2019-01-21T00:13:12.479Z,75.90
2019-01-21T00:15:39.365Z,76.10
2019-01-21T00:18:06.019Z,74.70
2019-01-21T00:20:32.683Z,74.30
2019-01-21T00:22:59.432Z,74.60
2019-01-21T00:25:26.080Z,75.60
2019-01-21T00:27:52.704Z,76.40
2019-01-21T00:30:19.360Z,76.30
2019-01-21T00:32:46.511Z,77.10
2019-01-21T00:35:13.180Z,80.00
2019-01-21T00:37:39.851Z,78.70
2019-01-21T00:40:10.094Z,77.70
2019-01-21T00:42:36.719Z,76.80
2019-01-21T00:45:05.074Z,76.00
2019-01-21T00:47:31.707Z,75.90
2019-01-21T00:49:58.386Z,75.90
2019-01-21T00:52:25.055Z,76.30
2019-01-21T00:54:51.822Z,76.20
2019-01-21T00:57:18.436Z,75.70
2019-01-21T00:59:45.255Z,75.20
2019-01-21T01:02:11.909Z,75.00
2019-01-21T01:04:38.528Z,75.20
2019-01-21T01:07:05.215Z,74.60
2019-01-21T01:09:31.840Z,74.50
2019-01-21T01:11:58.603Z,74.50
2019-01-21T01:14:25.275Z,75.30
2019-01-21T01:16:51.960Z,75.70
2019-01-21T01:19:18.589Z,75.60
2019-01-21T01:21:45.327Z,76.20
2019-01-21T01:24:11.896Z,79.10
2019-01-21T01:26:38.576Z,78.20
2019-01-21T01:29:05.195Z,77.30
2019-01-21T01:31:31.850Z,76.70
2019-01-21T01:33:58.492Z,76.40
2019-01-21T01:36:25.128Z,77.00
2019-01-21T01:38:51.803Z,77.90
2019-01-21T01:41:18.440Z,78.20
2019-01-21T01:43:45.114Z,78.70
2019-01-21T01:46:11.747Z,77.40
2019-01-21T01:48:38.418Z,75.70
2019-01-21T01:51:05.226Z,76.50
2019-01-21T01:53:32.259Z,75.50
2019-01-21T01:55:58.924Z,76.50
2019-01-21T01:58:25.628Z,75.50
2019-01-21T02:00:52.299Z,75.30
2019-01-21T02:03:18.936Z,75.10
2019-01-21T02:05:45.614Z,76.10
2019-01-21T02:08:12.896Z,75.00
2019-01-21T02:10:39.516Z,73.70
2019-01-21T02:13:06.175Z,74.90
2019-01-21T02:15:32.856Z,74.20
2019-01-21T02:17:59.570Z,74.50
2019-01-21T02:20:26.188Z,76.20
2019-01-21T02:22:54.019Z,75.50
2019-01-21T02:28:28.011Z,75.20
2019-01-21T02:31:17.135Z,79.20
2019-01-21T02:33:50.148Z,77.20
2019-01-21T02:36:20.475Z,77.10
2019-01-21T02:39:17.183Z,77.20
2019-01-21T02:41:44.448Z,75.80
2019-01-21T02:44:17.600Z,75.90
2019-01-21T02:46:57.297Z,76.30
2019-01-21T02:49:44.248Z,75.60
2019-01-21T02:52:29.064Z,76.40
2019-01-21T02:55:14.786Z,77.00
2019-01-21T02:57:45.200Z,76.70
2019-01-21T03:00:21.470Z,76.80
2019-01-21T03:02:57.499Z,75.40
2019-01-21T03:05:33.099Z,74.70
2019-01-21T03:08:26.329Z,75.80
2019-01-21T03:10:59.600Z,75.50
2019-01-21T03:13:29.870Z,75.60
2019-01-21T03:16:03.033Z,76.20
2019-01-21T03:18:55.004Z,75.50
2019-01-21T03:21:41.892Z,74.10
2019-01-21T03:24:15.225Z,74.10
2019-01-21T03:27:00.593Z,74.20
2019-01-21T03:29:51.017Z,74.00
2019-01-21T03:32:55.386Z,73.50
2019-01-21T03:35:37.886Z,74.00
2019-01-21T03:38:08.145Z,74.30
2019-01-21T03:40:41.125Z,74.70
2019-01-21T03:43:26.576Z,74.70
2019-01-21T03:45:56.808Z,74.00
2019-01-21T03:48:27.070Z,74.00
2019-01-21T03:51:12.572Z,73.80
2019-01-21T03:53:54.981Z,74.50
2019-01-21T03:56:25.267Z,74.70
2019-01-21T03:59:01.773Z,74.70
2019-01-21T04:01:38.543Z,75.50
2019-01-21T04:04:30.343Z,76.30
2019-01-21T04:07:00.329Z,76.60
2019-01-21T04:09:46.162Z,76.40
2019-01-21T04:12:21.944Z,73.90
2019-01-21T04:15:07.337Z,73.30
2019-01-21T04:17:49.801Z,75.30
2019-01-21T04:20:28.899Z,75.40
2019-01-21T04:23:14.647Z,74.70
2019-01-21T04:25:54.554Z,74.10
2019-01-21T04:28:28.093Z,74.00
2019-01-21T04:31:10.372Z,75.00
2019-01-21T04:34:11.220Z,75.10
2019-01-21T04:37:06.340Z,76.90
2019-01-21T04:39:45.921Z,76.60
2019-01-21T04:42:27.824Z,76.70
2019-01-21T04:45:04.127Z,76.50
2019-01-21T04:47:51.045Z,75.60
2019-01-21T04:50:55.037Z,76.60
2019-01-21T04:53:37.681Z,77.70
2019-01-21T04:56:10.815Z,78.40
2019-01-21T04:59:05.624Z,75.90
2019-01-21T05:02:00.560Z,75.40
2019-01-21T05:04:47.604Z,75.00
2019-01-21T05:07:30.688Z,73.80
2019-01-21T05:10:13.089Z,73.40
2019-01-21T05:12:55.593Z,74.00
2019-01-21T05:15:57.832Z,74.60
2019-01-21T05:18:43.451Z,75.20
2019-01-21T05:21:30.459Z,76.50
2019-01-21T05:24:21.848Z,77.70
2019-01-21T05:26:56.314Z,76.40
2019-01-21T05:29:32.909Z,75.60
2019-01-21T05:32:27.220Z,75.50
2019-01-21T05:35:18.974Z,75.80
2019-01-21T05:37:55.160Z,76.80
2019-01-21T05:40:43.304Z,75.70
2019-01-21T05:43:16.744Z,75.40
2019-01-21T05:45:56.419Z,77.60
2019-01-21T05:48:49.375Z,77.20
2019-01-21T05:51:40.984Z,76.80
2019-01-21T05:54:32.647Z,76.10
2019-01-21T05:57:25.472Z,76.00
2019-01-21T06:00:04.389Z,76.40
2019-01-21T06:03:00.052Z,76.10
2019-01-21T06:05:47.316Z,75.10
2019-01-21T06:08:23.658Z,74.70
2019-01-21T06:11:05.900Z,74.80
2019-01-21T06:13:51.348Z,75.00
2019-01-21T06:16:30.556Z,74.90
2019-01-21T06:19:18.968Z,75.90
2019-01-21T06:22:21.317Z,77.50
2019-01-21T06:25:17.368Z,78.90
2019-01-21T06:28:08.803Z,79.50
2019-01-21T06:30:42.143Z,76.50
2019-01-21T06:33:30.853Z,75.20
2019-01-21T06:36:13.036Z,75.70
2019-01-21T06:38:49.033Z,77.00
2019-01-21T06:41:47.992Z,76.60
2019-01-21T06:44:24.276Z,76.00
2019-01-21T06:46:54.516Z,75.30
2019-01-21T06:49:51.802Z,75.50
2019-01-21T06:52:40.371Z,75.20
2019-01-21T06:55:39.924Z,75.50
2019-01-21T06:58:10.189Z,78.70
2019-01-21T07:00:49.536Z,78.30
2019-01-21T07:03:51.932Z,76.50
2019-01-21T07:06:47.645Z,75.90
2019-01-21T07:09:26.967Z,75.60
2019-01-21T07:12:06.331Z,75.50
2019-01-21T07:15:01.318Z,75.70
2019-01-21T07:17:48.906Z,75.50
2019-01-21T07:20:31.176Z,75.60
2019-01-21T07:23:04.220Z,75.40
2019-01-21T07:25:40.956Z,76.40
2019-01-21T07:28:20.245Z,77.00
2019-01-21T07:30:53.554Z,78.90
2019-01-21T07:33:29.836Z,78.80
2019-01-21T07:36:00.107Z,79.20
2019-01-21T07:38:33.239Z,79.00
2019-01-21T07:41:03.608Z,78.00
2019-01-21T07:43:33.893Z,76.80
2019-01-21T07:46:12.688Z,77.50
2019-01-21T07:48:45.776Z,79.50
2019-01-21T07:51:40.720Z,80.50
2019-01-21T07:54:35.306Z,80.60
2019-01-21T07:57:17.440Z,80.20
2019-01-21T08:00:15.207Z,81.30
2019-01-21T08:03:06.524Z,80.90
2019-01-21T08:05:56.899Z,78.10
2019-01-21T08:08:27.149Z,77.10
2019-01-21T08:11:22.019Z,76.60
2019-01-21T08:13:58.472Z,75.60
2019-01-21T08:16:38.061Z,75.30
2019-01-21T08:19:14.701Z,76.60
2019-01-21T08:22:00.347Z,78.30
2019-01-21T08:24:39.635Z,77.00
2019-01-21T08:27:12.872Z,76.70
2019-01-21T08:29:49.228Z,77.40
2019-01-21T08:32:25.399Z,77.00
2019-01-21T08:35:10.227Z,78.00
2019-01-21T08:37:41.689Z,77.10
2019-01-21T08:40:15.001Z,75.20
2019-01-21T08:43:10.066Z,75.50
2019-01-21T08:45:48.949Z,74.60
2019-01-21T08:48:37.694Z,76.40
2019-01-21T08:51:07.946Z,75.50
2019-01-21T08:53:38.285Z,75.60
2019-01-21T08:56:14.547Z,74.60
2019-01-21T08:58:57.146Z,75.20
2019-01-21T09:01:48.070Z,78.60
2019-01-21T09:04:30.214Z,77.20
2019-01-21T09:07:03.473Z,76.70
2019-01-21T09:09:45.334Z,76.30
2019-01-21T09:12:21.391Z,76.20
2019-01-21T09:15:01.018Z,76.00
2019-01-21T09:17:46.762Z,75.40
2019-01-21T09:20:25.517Z,76.20
2019-01-21T09:23:13.854Z,77.50
2019-01-21T09:25:44.117Z,76.30
2019-01-21T09:28:26.899Z,75.70
2019-01-21T09:31:19.650Z,77.30
2019-01-21T09:33:53.251Z,79.20
2019-01-21T09:36:32.807Z,78.50
2019-01-21T09:39:18.467Z,77.50
2019-01-21T09:41:52.025Z,77.00
2019-01-21T09:44:28.124Z,77.30
2019-01-21T09:46:54.386Z,77.00
2019-01-21T09:49:20.729Z,77.20
2019-01-21T09:51:51.124Z,75.00
2019-01-21T09:54:19.005Z,73.80
2019-01-21T09:56:47.407Z,76.20
2019-01-21T09:59:14.083Z,76.40
2019-01-21T10:01:41.242Z,74.60
2019-01-21T10:04:08.707Z,74.70
2019-01-21T10:07:15.527Z,75.60
2019-01-21T10:10:17.886Z,74.20
2019-01-21T10:13:04.174Z,72.30
2019-01-21T10:15:37.683Z,71.50
2019-01-21T10:18:40.310Z,70.10
2019-01-21T10:21:37.989Z,70.40
2019-01-21T10:24:43.718Z,71.40
2019-01-21T10:27:26.373Z,70.40
2019-01-21T10:30:16.398Z,70.50
2019-01-21T10:32:52.809Z,69.10
2019-01-21T10:35:42.795Z,70.10
2019-01-21T10:38:36.254Z,68.70
2019-01-21T10:41:21.425Z,68.00
2019-01-21T10:44:12.890Z,70.20
2019-01-21T10:46:55.145Z,69.50
2019-01-21T10:49:45.643Z,69.80
2019-01-21T10:52:30.815Z,70.20
2019-01-21T10:55:17.758Z,68.70
2019-01-21T10:57:48.088Z,69.20
2019-01-21T11:00:33.677Z,68.80
2019-01-21T11:03:12.582Z,68.50
2019-01-21T11:05:59.213Z,68.60
2019-01-21T11:08:44.382Z,66.40
2019-01-21T11:11:14.993Z,66.50
2019-01-21T11:13:47.997Z,69.40
2019-01-21T11:16:20.998Z,70.30
2019-01-21T11:19:22.209Z,68.70
2019-01-21T11:21:53.047Z,67.00
2019-01-21T11:24:29.035Z,67.50
2019-01-21T11:27:05.718Z,67.50
2019-01-21T11:29:52.507Z,66.90
2019-01-21T11:32:59.194Z,67.60
2019-01-21T11:35:45.085Z,66.50
2019-01-21T11:38:36.689Z,67.50
2019-01-21T11:41:15.526Z,65.40
2019-01-21T11:43:45.817Z,67.60
2019-01-21T11:46:27.826Z,67.60
2019-01-21T11:49:21.351Z,66.90
2019-01-21T11:52:10.166Z,67.30
2019-01-21T11:54:46.374Z,67.10
2019-01-21T11:57:31.993Z,64.90
2019-01-21T12:00:17.612Z,66.00
2019-01-21T12:03:00.266Z,68.50
2019-01-21T12:05:35.954Z,67.90
2019-01-21T12:08:18.538Z,69.80
2019-01-21T12:10:57.605Z,67.50
2019-01-21T12:13:50.737Z,68.50
2019-01-21T12:16:38.292Z,67.20
2019-01-21T12:19:12.650Z,67.40
2019-01-21T12:21:58.294Z,67.70
2019-01-21T12:24:25.642Z,65.10
2019-01-21T12:27:16.032Z,66.10
2019-01-21T12:30:01.718Z,66.60
2019-01-21T12:32:59.890Z,66.20
2019-01-21T12:35:39.143Z,66.70
2019-01-21T12:38:21.741Z,66.40
2019-01-21T12:41:09.119Z,64.60
2019-01-21T12:43:45.661Z,66.60
2019-01-21T12:46:15.885Z,65.70
2019-01-21T12:48:46.259Z,64.70
2019-01-21T12:51:25.612Z,64.70
2019-01-21T12:53:58.577Z,65.90
2019-01-21T12:56:58.213Z,66.00
2019-01-21T12:59:43.830Z,66.20
2019-01-21T13:02:22.877Z,66.10
2019-01-21T13:04:55.779Z,65.30
2019-01-21T13:07:28.871Z,64.80
2019-01-21T13:10:08.137Z,66.40
2019-01-21T13:12:54.922Z,63.80
2019-01-21T13:15:27.924Z,65.60
2019-01-21T13:18:14.945Z,64.10
2019-01-21T13:20:54.244Z,65.60
2019-01-21T13:23:24.481Z,64.20
2019-01-21T13:26:19.418Z,63.40
2019-01-21T13:29:01.942Z,62.20
2019-01-21T13:31:58.354Z,60.50
2019-01-21T13:34:37.977Z,62.30
2019-01-21T13:37:34.320Z,62.40
2019-01-21T13:40:25.202Z,61.80
2019-01-21T13:42:58.524Z,64.00
2019-01-21T13:45:46.954Z,63.40
2019-01-21T13:48:19.934Z,63.20
2019-01-21T13:50:50.293Z,63.80
2019-01-21T13:53:29.622Z,61.60
2019-01-21T13:55:59.889Z,61.50
2019-01-21T13:58:45.301Z,62.50
2019-01-21T14:01:27.927Z,64.00
2019-01-21T14:04:01.018Z,64.70
2019-01-21T14:06:40.178Z,62.80
2019-01-21T14:09:14.928Z,63.90
2019-01-21T14:11:57.461Z,64.50
2019-01-21T14:14:36.637Z,63.80
2019-01-21T14:17:25.209Z,63.30
2019-01-21T14:19:55.495Z,64.50
2019-01-21T14:22:49.670Z,66.20
2019-01-21T14:25:38.152Z,65.70
2019-01-21T14:28:23.355Z,66.00
2019-01-21T14:31:02.579Z,66.90
2019-01-21T14:33:41.601Z,68.30
2019-01-21T14:36:27.264Z,67.60
2019-01-21T14:39:06.497Z,67.80
2019-01-21T14:41:42.746Z,68.00
2019-01-21T14:44:19.586Z,67.80
2019-01-21T14:46:52.709Z,67.60
2019-01-21T14:49:39.696Z,68.50
2019-01-21T14:52:37.542Z,67.70
2019-01-21T14:55:32.193Z,68.10
2019-01-21T14:58:11.999Z,67.60
2019-01-21T15:00:44.936Z,68.20
2019-01-21T15:03:38.403Z,69.30
2019-01-21T15:06:24.066Z,69.70
2019-01-21T15:08:57.346Z,70.10
2019-01-21T15:11:42.922Z,70.30
2019-01-21T15:14:22.892Z,70.40
2019-01-21T15:17:14.354Z,71.20
2019-01-21T15:19:41.982Z,70.70
2019-01-21T15:22:33.565Z,70.70
2019-01-21T15:25:16.308Z,70.80
2019-01-21T15:27:56.940Z,70.80
2019-01-21T15:30:41.159Z,69.80
2019-01-21T15:33:17.453Z,69.90
2019-01-21T15:36:04.472Z,70.40
2019-01-21T15:38:44.135Z,70.80
2019-01-21T15:41:40.381Z,70.40
2019-01-21T15:44:13.685Z,70.10
2019-01-21T15:46:46.811Z,70.70
2019-01-21T15:49:23.178Z,70.70
2019-01-21T15:51:59.763Z,71.40
2019-01-21T15:54:36.667Z,72.30
2019-01-21T15:57:19.458Z,72.10
2019-01-21T16:00:23.650Z,72.40
2019-01-21T16:02:57.265Z,72.60
2019-01-21T16:05:49.113Z,72.20
2019-01-21T16:08:17.752Z,72.10
2019-01-21T16:11:01.837Z,72.40
2019-01-21T16:13:38.073Z,71.80
2019-01-21T16:16:14.553Z,72.60
2019-01-21T16:18:44.821Z,73.80
2019-01-21T16:21:21.349Z,72.40
2019-01-21T16:24:03.460Z,72.70
2019-01-21T16:26:33.750Z,73.40
2019-01-21T16:29:06.753Z,74.50
2019-01-21T16:31:33.493Z,75.60
2019-01-21T16:34:31.311Z,75.70
2019-01-21T16:37:28.666Z,75.30
2019-01-21T16:40:01.965Z,74.40
2019-01-21T16:42:28.195Z,74.80
2019-01-21T16:44:54.842Z,74.40
2019-01-21T16:47:21.543Z,74.40
2019-01-21T16:49:48.280Z,74.40
2019-01-21T16:52:15.018Z,74.90
2019-01-21T16:54:41.709Z,75.00
2019-01-21T16:57:08.512Z,74.80
2019-01-21T16:59:36.111Z,75.40
2019-01-21T17:02:03.137Z,75.50
2019-01-21T17:04:29.741Z,75.90
2019-01-21T17:06:56.491Z,75.30
2019-01-21T17:09:23.317Z,76.00
2019-01-21T17:11:50.364Z,75.40
2019-01-21T17:14:17.718Z,75.40
2019-01-21T17:16:44.338Z,75.90
2019-01-21T17:19:10.978Z,75.60
2019-01-21T17:21:37.791Z,76.30
2019-01-21T17:24:04.422Z,75.60
2019-01-21T17:26:31.093Z,75.30
2019-01-21T17:28:57.798Z,74.90
2019-01-21T17:31:24.419Z,74.50
2019-01-21T17:33:51.047Z,74.70
2019-01-21T17:36:17.718Z,75.00
2019-01-21T17:38:44.412Z,74.90
2019-01-21T17:41:11.183Z,74.40
2019-01-21T17:43:37.949Z,74.90
2019-01-21T17:46:04.605Z,74.50
2019-01-21T17:48:32.384Z,74.50
2019-01-21T17:50:58.996Z,75.00
2019-01-21T17:53:25.626Z,75.20
2019-01-21T17:55:52.296Z,76.30
2019-01-21T17:58:19.034Z,76.20
2019-01-21T18:00:45.659Z,76.10
2019-01-21T18:03:12.314Z,75.30
2019-01-21T18:05:38.973Z,75.10
2019-01-21T18:08:05.622Z,74.80
2019-01-21T18:10:32.326Z,74.90
2019-01-21T18:12:58.901Z,74.60
2019-01-21T18:15:25.601Z,74.50
2019-01-21T18:17:52.466Z,74.20
2019-01-21T18:20:20.602Z,74.30
2019-01-21T18:22:47.269Z,75.20
2019-01-21T18:25:13.931Z,76.00
2019-01-21T18:27:40.617Z,76.60
2019-01-21T18:30:17.995Z,76.60
2019-01-21T18:32:46.530Z,76.70
2019-01-21T18:35:13.448Z,79.20
2019-01-21T18:37:40.057Z,78.10
2019-01-21T18:40:10.175Z,79.20
2019-01-21T18:42:36.853Z,79.30
2019-01-21T18:45:06.622Z,79.10
2019-01-21T18:47:33.548Z,78.00
2019-01-21T18:50:00.246Z,77.40
2019-01-21T18:52:26.879Z,76.40
2019-01-21T18:54:53.517Z,75.70
2019-01-21T18:57:20.305Z,75.90
2019-01-21T18:59:47.038Z,75.80
2019-01-21T19:02:13.718Z,75.30
2019-01-21T19:04:40.649Z,75.70
2019-01-21T19:07:07.405Z,76.60
2019-01-21T19:09:34.154Z,76.00
2019-01-21T19:12:00.933Z,76.10
2019-01-21T19:14:27.665Z,75.80
2019-01-21T19:16:54.351Z,76.50
2019-01-21T19:19:20.980Z,77.60
2019-01-21T19:21:53.416Z,77.10
2019-01-21T19:24:16.446Z,76.70
2019-01-21T19:26:43.097Z,77.20
2019-01-21T19:29:09.825Z,79.00
2019-01-21T19:31:36.763Z,79.40
2019-01-21T19:34:03.866Z,78.50
2019-01-21T19:36:31.151Z,78.20
2019-01-21T19:38:58.371Z,77.00
2019-01-21T19:41:25.321Z,77.00
2019-01-21T19:43:52.249Z,76.30
2019-01-21T19:46:20.216Z,76.50
2019-01-21T19:48:47.213Z,77.90
2019-01-21T19:51:17.212Z,78.30
2019-01-21T19:53:44.226Z,78.20
2019-01-21T19:56:11.533Z,78.50
2019-01-21T19:58:38.518Z,80.50
2019-01-21T20:01:05.395Z,80.00
2019-01-21T20:03:32.248Z,78.50
2019-01-21T20:05:59.403Z,78.20
2019-01-21T20:08:26.425Z,78.30
2019-01-21T20:10:53.928Z,77.30
2019-01-21T20:13:20.819Z,76.80
2019-01-21T20:15:50.889Z,76.70
2019-01-21T20:18:17.741Z,77.20
2019-01-21T20:20:44.588Z,77.60
2019-01-21T20:23:11.484Z,77.90
2019-01-21T20:25:38.432Z,76.60
2019-01-21T20:28:05.555Z,76.30
2019-01-21T20:30:32.433Z,76.10
2019-01-21T20:33:00.475Z,76.50
2019-01-21T20:35:27.499Z,77.00
2019-01-21T20:37:54.482Z,76.90
2019-01-21T20:40:23.871Z,76.80
2019-01-21T20:42:50.869Z,76.80
2019-01-21T20:45:17.943Z,77.00
2019-01-21T20:47:44.883Z,77.00
2019-01-21T20:50:15.115Z,76.50
2019-01-21T20:52:41.898Z,76.70
2019-01-21T20:55:09.976Z,76.50
2019-01-21T20:57:36.629Z,77.30
2019-01-21T21:00:06.878Z,77.90
2019-01-21T21:02:33.538Z,78.30
2019-01-21T21:05:00.296Z,78.70
2019-01-21T21:07:26.913Z,78.90
2019-01-21T21:09:53.618Z,78.20
2019-01-21T21:12:25.830Z,78.00
2019-01-21T21:14:48.774Z,77.60
2019-01-21T21:17:15.398Z,77.30
2019-01-21T21:19:42.088Z,77.10
2019-01-21T21:22:08.709Z,76.60
2019-01-21T21:24:35.428Z,76.80
2019-01-21T21:27:02.112Z,76.90
2019-01-21T21:29:29.471Z,76.80
2019-01-21T21:31:56.726Z,77.50
2019-01-21T21:34:23.391Z,77.60
2019-01-21T21:36:50.158Z,77.80
2019-01-21T21:39:16.801Z,78.30
2019-01-21T21:41:43.490Z,79.00
2019-01-21T21:44:10.193Z,79.50
2019-01-21T21:46:36.879Z,79.50
2019-01-21T21:49:03.505Z,78.60
2019-01-21T21:51:30.124Z,78.80
2019-01-21T21:53:56.813Z,78.70
2019-01-21T21:56:23.504Z,79.30
2019-01-21T21:58:50.248Z,80.80
2019-01-21T22:01:23.805Z,80.80
2019-01-21T22:03:45.349Z,82.10
2019-01-21T22:06:12.313Z,83.60
2019-01-21T22:08:39.005Z,82.40
2019-01-21T22:11:05.669Z,82.80
2019-01-21T22:13:32.286Z,81.30
2019-01-21T22:15:58.982Z,81.40
2019-01-21T22:18:25.916Z,81.70
2019-01-21T22:20:52.674Z,81.90
2019-01-21T22:23:19.307Z,81.30
2019-01-21T22:25:45.965Z,80.30
2019-01-21T22:28:12.624Z,80.50
2019-01-21T22:30:39.391Z,81.20
2019-01-21T22:33:06.030Z,82.40
2019-01-21T22:35:32.750Z,81.90
2019-01-21T22:37:59.433Z,81.00
2019-01-21T22:40:26.056Z,81.60
2019-01-21T22:42:52.742Z,82.50
2019-01-21T22:45:19.565Z,83.40
2019-01-21T22:47:46.337Z,83.00
2019-01-21T22:50:14.306Z,82.60
2019-01-21T22:52:42.024Z,82.60
2019-01-21T22:55:10.797Z,81.90
2019-01-21T22:57:37.569Z,81.80
2019-01-21T23:00:29.475Z,81.80
2019-01-21T23:02:56.165Z,82.60
2019-01-21T23:05:22.789Z,83.70
2019-01-21T23:07:49.447Z,84.20
2019-01-21T23:10:16.110Z,84.90
2019-01-21T23:12:42.736Z,84.80
2019-01-21T23:15:09.718Z,84.60
2019-01-21T23:17:36.362Z,85.20
2019-01-21T23:20:06.178Z,85.40
2019-01-21T23:22:32.877Z,84.60
2019-01-21T23:24:59.526Z,84.30
2019-01-21T23:27:26.321Z,83.90
2019-01-21T23:29:53.286Z,83.50
2019-01-21T23:32:19.937Z,84.80
2019-01-21T23:34:46.617Z,86.00
2019-01-21T23:37:13.250Z,86.00
2019-01-21T23:39:40.089Z,87.20
2019-01-21T23:42:06.703Z,87.10
2019-01-21T23:44:33.369Z,87.50
2019-01-21T23:47:00.227Z,88.60
2019-01-21T23:49:26.870Z,88.50
2019-01-21T23:51:53.529Z,85.90
2019-01-21T23:54:20.334Z,85.50
2019-01-21T23:56:47.049Z,84.10
2019-01-21T23:59:13.673Z,83.50
